sensor_id;sensor_type;location;lat;lon;timestamp;P1;durP1;ratioP1;P2;durP2;ratioP2
3523;SDS011;1776;53.330;11.498;2023-04-25T00:02:24;9.50;;;3.00;;
3523;SDS011;1776;53.330;11.498;2023-04-25T00:04:49;4.90;;;3.10;;
3523;SDS011;1776;53.330;11.498;2023-04-25T00:07:15;3.70;;;2.67;;
3523;SDS011;1776;53.330;11.498;2023-04-25T00:09:41;4.40;;;2.20;;
3523;SDS011;1776;53.330;11.498;2023-04-25T00:12:06;3.83;;;2.40;;
3523;SDS011;1776;53.330;11.498;2023-04-25T00:14:32;4.90;;;3.83;;
3523;SDS011;1776;53.330;11.498;2023-04-25T00:17:00;6.70;;;3.00;;
3523;SDS011;1776;53.330;11.498;2023-04-25T00:19:26;2.90;;;2.37;;
3523;SDS011;1776;53.330;11.498;2023-04-25T00:21:53;5.43;;;2.30;;
3523;SDS011;1776;53.330;11.498;2023-04-25T00:24:19;8.23;;;2.20;;
3523;SDS011;1776;53.330;11.498;2023-04-25T00:26:44;11.03;;;2.87;;
3523;SDS011;1776;53.330;11.498;2023-04-25T00:29:10;6.13;;;2.77;;
3523;SDS011;1776;53.330;11.498;2023-04-25T00:31:35;4.30;;;2.80;;
3523;SDS011;1776;53.330;11.498;2023-04-25T00:34:00;7.93;;;2.87;;
3523;SDS011;1776;53.330;11.498;2023-04-25T00:36:26;13.20;;;2.73;;
3523;SDS011;1776;53.330;11.498;2023-04-25T00:38:52;7.80;;;2.90;;
3523;SDS011;1776;53.330;11.498;2023-04-25T00:41:18;7.47;;;3.40;;
3523;SDS011;1776;53.330;11.498;2023-04-25T00:43:44;5.53;;;3.00;;
3523;SDS011;1776;53.330;11.498;2023-04-25T00:46:11;6.70;;;2.70;;
3523;SDS011;1776;53.330;11.498;2023-04-25T00:48:36;4.80;;;2.20;;
3523;SDS011;1776;53.330;11.498;2023-04-25T00:51:01;3.83;;;2.90;;
3523;SDS011;1776;53.330;11.498;2023-04-25T00:53:27;5.97;;;2.90;;
3523;SDS011;1776;53.330;11.498;2023-04-25T00:55:53;4.40;;;2.63;;
3523;SDS011;1776;53.330;11.498;2023-04-25T00:58:20;8.60;;;3.70;;
3523;SDS011;1776;53.330;11.498;2023-04-25T01:00:46;4.97;;;2.20;;
3523;SDS011;1776;53.330;11.498;2023-04-25T01:03:16;3.40;;;3.10;;
3523;SDS011;1776;53.330;11.498;2023-04-25T01:05:45;4.80;;;3.03;;
3523;SDS011;1776;53.330;11.498;2023-04-25T01:08:12;10.60;;;3.73;;
3523;SDS011;1776;53.330;11.498;2023-04-25T01:10:38;10.70;;;3.30;;
3523;SDS011;1776;53.330;11.498;2023-04-25T01:13:03;5.87;;;3.43;;
3523;SDS011;1776;53.330;11.498;2023-04-25T01:15:28;7.97;;;3.10;;
3523;SDS011;1776;53.330;11.498;2023-04-25T01:17:54;5.53;;;2.77;;
3523;SDS011;1776;53.330;11.498;2023-04-25T01:20:21;3.70;;;2.80;;
3523;SDS011;1776;53.330;11.498;2023-04-25T01:22:48;6.10;;;3.17;;
3523;SDS011;1776;53.330;11.498;2023-04-25T01:25:14;3.90;;;3.50;;
3523;SDS011;1776;53.330;11.498;2023-04-25T01:27:39;6.40;;;4.27;;
3523;SDS011;1776;53.330;11.498;2023-04-25T01:30:06;4.07;;;3.27;;
3523;SDS011;1776;53.330;11.498;2023-04-25T01:32:32;5.00;;;3.10;;
3523;SDS011;1776;53.330;11.498;2023-04-25T01:35:03;5.47;;;3.80;;
3523;SDS011;1776;53.330;11.498;2023-04-25T01:37:34;6.00;;;3.43;;
3523;SDS011;1776;53.330;11.498;2023-04-25T01:40:00;8.80;;;3.50;;
3523;SDS011;1776;53.330;11.498;2023-04-25T01:42:26;6.00;;;4.07;;
3523;SDS011;1776;53.330;11.498;2023-04-25T01:44:51;10.93;;;4.37;;
3523;SDS011;1776;53.330;11.498;2023-04-25T01:47:16;7.63;;;3.40;;
3523;SDS011;1776;53.330;11.498;2023-04-25T01:49:42;8.43;;;4.37;;
3523;SDS011;1776;53.330;11.498;2023-04-25T01:52:07;6.93;;;4.83;;
3523;SDS011;1776;53.330;11.498;2023-04-25T01:54:32;7.53;;;4.63;;
3523;SDS011;1776;53.330;11.498;2023-04-25T01:56:57;9.53;;;4.50;;
3523;SDS011;1776;53.330;11.498;2023-04-25T01:59:23;5.03;;;3.93;;
3523;SDS011;1776;53.330;11.498;2023-04-25T02:01:48;5.63;;;4.50;;
3523;SDS011;1776;53.330;11.498;2023-04-25T02:04:13;6.40;;;4.40;;
3523;SDS011;1776;53.330;11.498;2023-04-25T02:06:39;9.70;;;4.20;;
3523;SDS011;1776;53.330;11.498;2023-04-25T02:09:04;7.50;;;4.53;;
3523;SDS011;1776;53.330;11.498;2023-04-25T02:11:30;7.60;;;4.40;;
3523;SDS011;1776;53.330;11.498;2023-04-25T02:13:55;4.90;;;3.60;;
3523;SDS011;1776;53.330;11.498;2023-04-25T02:16:20;10.53;;;3.77;;
3523;SDS011;1776;53.330;11.498;2023-04-25T02:18:45;6.50;;;4.03;;
3523;SDS011;1776;53.330;11.498;2023-04-25T02:21:11;8.90;;;4.07;;
3523;SDS011;1776;53.330;11.498;2023-04-25T02:23:37;5.50;;;3.87;;
3523;SDS011;1776;53.330;11.498;2023-04-25T02:26:02;4.47;;;3.33;;
3523;SDS011;1776;53.330;11.498;2023-04-25T02:28:28;4.43;;;4.03;;
3523;SDS011;1776;53.330;11.498;2023-04-25T02:30:53;7.10;;;3.50;;
3523;SDS011;1776;53.330;11.498;2023-04-25T02:33:18;6.20;;;4.37;;
3523;SDS011;1776;53.330;11.498;2023-04-25T02:35:44;7.10;;;4.47;;
3523;SDS011;1776;53.330;11.498;2023-04-25T02:38:09;5.53;;;4.30;;
3523;SDS011;1776;53.330;11.498;2023-04-25T02:40:34;8.17;;;5.10;;
3523;SDS011;1776;53.330;11.498;2023-04-25T02:43:00;4.33;;;3.00;;
3523;SDS011;1776;53.330;11.498;2023-04-25T02:45:25;9.83;;;4.17;;
3523;SDS011;1776;53.330;11.498;2023-04-25T02:47:50;8.17;;;4.03;;
3523;SDS011;1776;53.330;11.498;2023-04-25T02:50:16;5.87;;;3.23;;
3523;SDS011;1776;53.330;11.498;2023-04-25T02:52:42;5.70;;;3.60;;
3523;SDS011;1776;53.330;11.498;2023-04-25T02:55:08;9.40;;;3.73;;
3523;SDS011;1776;53.330;11.498;2023-04-25T02:57:33;5.90;;;3.47;;
3523;SDS011;1776;53.330;11.498;2023-04-25T02:59:58;7.73;;;3.20;;
3523;SDS011;1776;53.330;11.498;2023-04-25T03:02:24;8.80;;;3.83;;
3523;SDS011;1776;53.330;11.498;2023-04-25T03:04:49;5.87;;;3.00;;
3523;SDS011;1776;53.330;11.498;2023-04-25T03:07:15;4.03;;;2.97;;
3523;SDS011;1776;53.330;11.498;2023-04-25T03:09:40;10.50;;;3.77;;
3523;SDS011;1776;53.330;11.498;2023-04-25T03:12:05;9.50;;;2.93;;
3523;SDS011;1776;53.330;11.498;2023-04-25T03:14:31;7.97;;;3.70;;
3523;SDS011;1776;53.330;11.498;2023-04-25T03:16:56;12.23;;;3.80;;
3523;SDS011;1776;53.330;11.498;2023-04-25T03:19:21;4.57;;;3.00;;
3523;SDS011;1776;53.330;11.498;2023-04-25T03:21:47;13.90;;;4.80;;
3523;SDS011;1776;53.330;11.498;2023-04-25T03:24:12;4.77;;;3.50;;
3523;SDS011;1776;53.330;11.498;2023-04-25T03:26:37;6.67;;;3.20;;
3523;SDS011;1776;53.330;11.498;2023-04-25T03:29:03;4.53;;;2.73;;
3523;SDS011;1776;53.330;11.498;2023-04-25T03:31:28;7.90;;;3.93;;
3523;SDS011;1776;53.330;11.498;2023-04-25T03:33:53;12.90;;;3.50;;
3523;SDS011;1776;53.330;11.498;2023-04-25T03:36:19;7.70;;;3.83;;
3523;SDS011;1776;53.330;11.498;2023-04-25T03:38:44;12.87;;;3.90;;
3523;SDS011;1776;53.330;11.498;2023-04-25T03:41:10;17.93;;;4.67;;
3523;SDS011;1776;53.330;11.498;2023-04-25T03:43:36;23.63;;;4.60;;
3523;SDS011;1776;53.330;11.498;2023-04-25T03:46:01;11.20;;;4.03;;
3523;SDS011;1776;53.330;11.498;2023-04-25T03:48:26;12.27;;;3.83;;
3523;SDS011;1776;53.330;11.498;2023-04-25T03:50:52;15.43;;;4.23;;
3523;SDS011;1776;53.330;11.498;2023-04-25T03:53:18;20.33;;;4.30;;
3523;SDS011;1776;53.330;11.498;2023-04-25T03:55:43;12.50;;;4.40;;
3523;SDS011;1776;53.330;11.498;2023-04-25T03:58:09;15.10;;;3.77;;
3523;SDS011;1776;53.330;11.498;2023-04-25T04:00:34;16.70;;;4.80;;
3523;SDS011;1776;53.330;11.498;2023-04-25T04:03:00;17.03;;;3.97;;
3523;SDS011;1776;53.330;11.498;2023-04-25T04:05:25;12.20;;;4.37;;
3523;SDS011;1776;53.330;11.498;2023-04-25T04:07:51;20.13;;;5.37;;
3523;SDS011;1776;53.330;11.498;2023-04-25T04:10:16;18.50;;;4.20;;
3523;SDS011;1776;53.330;11.498;2023-04-25T04:12:41;16.57;;;4.37;;
3523;SDS011;1776;53.330;11.498;2023-04-25T04:15:07;14.03;;;4.17;;
3523;SDS011;1776;53.330;11.498;2023-04-25T04:17:32;11.07;;;3.50;;
3523;SDS011;1776;53.330;11.498;2023-04-25T04:19:58;18.17;;;4.67;;
3523;SDS011;1776;53.330;11.498;2023-04-25T04:22:24;17.40;;;5.10;;
3523;SDS011;1776;53.330;11.498;2023-04-25T04:24:49;11.53;;;3.30;;
3523;SDS011;1776;53.330;11.498;2023-04-25T04:27:18;19.03;;;5.10;;
3523;SDS011;1776;53.330;11.498;2023-04-25T04:29:44;12.50;;;3.77;;
3523;SDS011;1776;53.330;11.498;2023-04-25T04:32:10;11.70;;;4.07;;
3523;SDS011;1776;53.330;11.498;2023-04-25T04:34:36;21.47;;;5.10;;
3523;SDS011;1776;53.330;11.498;2023-04-25T04:37:02;13.80;;;4.20;;
3523;SDS011;1776;53.330;11.498;2023-04-25T04:39:27;14.17;;;4.13;;
3523;SDS011;1776;53.330;11.498;2023-04-25T04:41:53;15.93;;;4.50;;
3523;SDS011;1776;53.330;11.498;2023-04-25T04:44:18;26.87;;;4.67;;
3523;SDS011;1776;53.330;11.498;2023-04-25T04:46:43;21.60;;;4.37;;
3523;SDS011;1776;53.330;11.498;2023-04-25T04:49:09;15.90;;;4.40;;
3523;SDS011;1776;53.330;11.498;2023-04-25T04:51:35;25.33;;;4.97;;
3523;SDS011;1776;53.330;11.498;2023-04-25T04:54:01;11.93;;;4.00;;
3523;SDS011;1776;53.330;11.498;2023-04-25T04:56:28;18.03;;;4.07;;
3523;SDS011;1776;53.330;11.498;2023-04-25T04:58:57;16.00;;;4.13;;
3523;SDS011;1776;53.330;11.498;2023-04-25T05:01:23;10.20;;;3.77;;
3523;SDS011;1776;53.330;11.498;2023-04-25T05:03:48;15.83;;;4.30;;
3523;SDS011;1776;53.330;11.498;2023-04-25T05:06:13;19.17;;;4.80;;
3523;SDS011;1776;53.330;11.498;2023-04-25T05:08:39;16.37;;;4.33;;
3523;SDS011;1776;53.330;11.498;2023-04-25T05:11:04;14.87;;;4.00;;
3523;SDS011;1776;53.330;11.498;2023-04-25T05:13:30;13.43;;;3.87;;
3523;SDS011;1776;53.330;11.498;2023-04-25T05:15:55;18.90;;;5.07;;
3523;SDS011;1776;53.330;11.498;2023-04-25T05:18:20;15.27;;;4.20;;
3523;SDS011;1776;53.330;11.498;2023-04-25T05:20:45;15.83;;;4.90;;
3523;SDS011;1776;53.330;11.498;2023-04-25T05:23:11;18.50;;;3.60;;
3523;SDS011;1776;53.330;11.498;2023-04-25T05:25:36;16.30;;;4.20;;
3523;SDS011;1776;53.330;11.498;2023-04-25T05:28:01;17.50;;;4.33;;
3523;SDS011;1776;53.330;11.498;2023-04-25T05:30:27;16.40;;;3.87;;
3523;SDS011;1776;53.330;11.498;2023-04-25T05:32:52;27.43;;;4.70;;
3523;SDS011;1776;53.330;11.498;2023-04-25T05:35:17;18.10;;;6.00;;
3523;SDS011;1776;53.330;11.498;2023-04-25T05:37:42;21.07;;;4.30;;
3523;SDS011;1776;53.330;11.498;2023-04-25T05:40:08;14.63;;;4.40;;
3523;SDS011;1776;53.330;11.498;2023-04-25T05:42:33;21.83;;;3.90;;
3523;SDS011;1776;53.330;11.498;2023-04-25T05:44:59;14.97;;;4.80;;
3523;SDS011;1776;53.330;11.498;2023-04-25T05:47:25;28.60;;;5.57;;
3523;SDS011;1776;53.330;11.498;2023-04-25T05:49:50;17.93;;;4.70;;
3523;SDS011;1776;53.330;11.498;2023-04-25T05:52:16;16.77;;;5.13;;
3523;SDS011;1776;53.330;11.498;2023-04-25T05:54:41;13.60;;;4.43;;
3523;SDS011;1776;53.330;11.498;2023-04-25T05:57:06;19.63;;;6.17;;
3523;SDS011;1776;53.330;11.498;2023-04-25T05:59:31;16.77;;;4.33;;
3523;SDS011;1776;53.330;11.498;2023-04-25T06:01:57;21.30;;;4.80;;
3523;SDS011;1776;53.330;11.498;2023-04-25T06:04:22;11.67;;;4.13;;
3523;SDS011;1776;53.330;11.498;2023-04-25T06:06:47;12.97;;;3.60;;
3523;SDS011;1776;53.330;11.498;2023-04-25T06:09:12;16.40;;;4.20;;
3523;SDS011;1776;53.330;11.498;2023-04-25T06:11:38;13.87;;;4.33;;
3523;SDS011;1776;53.330;11.498;2023-04-25T06:14:03;16.10;;;3.60;;
3523;SDS011;1776;53.330;11.498;2023-04-25T06:16:28;26.33;;;5.83;;
3523;SDS011;1776;53.330;11.498;2023-04-25T06:18:53;18.50;;;4.07;;
3523;SDS011;1776;53.330;11.498;2023-04-25T06:21:19;15.90;;;5.03;;
3523;SDS011;1776;53.330;11.498;2023-04-25T06:23:44;16.63;;;4.00;;
3523;SDS011;1776;53.330;11.498;2023-04-25T06:26:10;14.63;;;4.63;;
3523;SDS011;1776;53.330;11.498;2023-04-25T06:28:35;14.43;;;3.80;;
3523;SDS011;1776;53.330;11.498;2023-04-25T06:31:00;14.33;;;4.50;;
3523;SDS011;1776;53.330;11.498;2023-04-25T06:33:25;19.70;;;6.13;;
3523;SDS011;1776;53.330;11.498;2023-04-25T06:35:51;13.60;;;4.60;;
3523;SDS011;1776;53.330;11.498;2023-04-25T06:38:17;17.50;;;3.70;;
3523;SDS011;1776;53.330;11.498;2023-04-25T06:40:42;18.03;;;3.57;;
3523;SDS011;1776;53.330;11.498;2023-04-25T06:43:07;12.90;;;3.40;;
3523;SDS011;1776;53.330;11.498;2023-04-25T06:45:32;17.67;;;4.10;;
3523;SDS011;1776;53.330;11.498;2023-04-25T06:47:58;10.93;;;3.90;;
3523;SDS011;1776;53.330;11.498;2023-04-25T06:50:23;15.63;;;3.80;;
3523;SDS011;1776;53.330;11.498;2023-04-25T06:52:48;21.13;;;4.00;;
3523;SDS011;1776;53.330;11.498;2023-04-25T06:55:14;16.33;;;3.97;;
3523;SDS011;1776;53.330;11.498;2023-04-25T06:57:39;16.43;;;4.00;;
3523;SDS011;1776;53.330;11.498;2023-04-25T07:00:04;20.60;;;4.60;;
3523;SDS011;1776;53.330;11.498;2023-04-25T07:02:33;16.80;;;4.40;;
3523;SDS011;1776;53.330;11.498;2023-04-25T07:04:58;15.17;;;4.00;;
3523;SDS011;1776;53.330;11.498;2023-04-25T07:07:24;14.13;;;3.77;;
3523;SDS011;1776;53.330;11.498;2023-04-25T07:09:50;19.80;;;4.60;;
3523;SDS011;1776;53.330;11.498;2023-04-25T07:12:15;10.27;;;4.00;;
3523;SDS011;1776;53.330;11.498;2023-04-25T07:14:40;17.80;;;3.20;;
3523;SDS011;1776;53.330;11.498;2023-04-25T07:17:06;16.60;;;4.10;;
3523;SDS011;1776;53.330;11.498;2023-04-25T07:19:32;15.80;;;3.93;;
3523;SDS011;1776;53.330;11.498;2023-04-25T07:21:58;19.30;;;3.40;;
3523;SDS011;1776;53.330;11.498;2023-04-25T07:24:23;9.10;;;3.70;;
3523;SDS011;1776;53.330;11.498;2023-04-25T07:26:48;8.20;;;3.07;;
3523;SDS011;1776;53.330;11.498;2023-04-25T07:29:14;8.67;;;3.40;;
3523;SDS011;1776;53.330;11.498;2023-04-25T07:31:39;18.43;;;3.50;;
3523;SDS011;1776;53.330;11.498;2023-04-25T07:34:04;24.50;;;4.23;;
3523;SDS011;1776;53.330;11.498;2023-04-25T07:36:30;14.73;;;4.33;;
3523;SDS011;1776;53.330;11.498;2023-04-25T07:38:56;14.80;;;4.33;;
3523;SDS011;1776;53.330;11.498;2023-04-25T07:41:21;11.00;;;3.80;;
3523;SDS011;1776;53.330;11.498;2023-04-25T07:43:47;11.83;;;3.93;;
3523;SDS011;1776;53.330;11.498;2023-04-25T07:46:12;11.00;;;3.53;;
3523;SDS011;1776;53.330;11.498;2023-04-25T07:48:37;11.10;;;2.90;;
3523;SDS011;1776;53.330;11.498;2023-04-25T07:51:02;9.47;;;3.50;;
3523;SDS011;1776;53.330;11.498;2023-04-25T07:53:30;9.53;;;3.20;;
3523;SDS011;1776;53.330;11.498;2023-04-25T07:55:56;18.83;;;4.17;;
3523;SDS011;1776;53.330;11.498;2023-04-25T07:58:21;11.73;;;3.77;;
3523;SDS011;1776;53.330;11.498;2023-04-25T08:00:47;19.97;;;3.93;;
3523;SDS011;1776;53.330;11.498;2023-04-25T08:03:13;17.43;;;3.73;;
3523;SDS011;1776;53.330;11.498;2023-04-25T08:05:38;16.53;;;4.53;;
3523;SDS011;1776;53.330;11.498;2023-04-25T08:08:03;14.90;;;4.87;;
3523;SDS011;1776;53.330;11.498;2023-04-25T08:10:31;12.97;;;4.40;;
3523;SDS011;1776;53.330;11.498;2023-04-25T08:12:56;15.70;;;3.60;;
3523;SDS011;1776;53.330;11.498;2023-04-25T08:15:22;14.40;;;3.20;;
3523;SDS011;1776;53.330;11.498;2023-04-25T08:17:47;9.37;;;3.27;;
3523;SDS011;1776;53.330;11.498;2023-04-25T08:20:12;9.60;;;3.23;;
3523;SDS011;1776;53.330;11.498;2023-04-25T08:22:38;11.77;;;3.63;;
3523;SDS011;1776;53.330;11.498;2023-04-25T08:25:03;17.13;;;4.03;;
3523;SDS011;1776;53.330;11.498;2023-04-25T08:27:28;7.20;;;3.60;;
3523;SDS011;1776;53.330;11.498;2023-04-25T08:29:54;12.27;;;3.00;;
3523;SDS011;1776;53.330;11.498;2023-04-25T08:32:20;13.87;;;3.37;;
3523;SDS011;1776;53.330;11.498;2023-04-25T08:34:46;11.47;;;3.33;;
3523;SDS011;1776;53.330;11.498;2023-04-25T08:37:11;11.03;;;2.97;;
3523;SDS011;1776;53.330;11.498;2023-04-25T08:39:37;15.40;;;3.63;;
3523;SDS011;1776;53.330;11.498;2023-04-25T08:42:02;16.63;;;3.43;;
3523;SDS011;1776;53.330;11.498;2023-04-25T08:44:33;10.17;;;3.70;;
3523;SDS011;1776;53.330;11.498;2023-04-25T08:46:58;13.27;;;3.50;;
3523;SDS011;1776;53.330;11.498;2023-04-25T08:49:24;13.40;;;3.87;;
3523;SDS011;1776;53.330;11.498;2023-04-25T08:51:50;7.30;;;3.10;;
3523;SDS011;1776;53.330;11.498;2023-04-25T08:54:17;13.30;;;3.93;;
3523;SDS011;1776;53.330;11.498;2023-04-25T08:56:47;14.87;;;3.90;;
3523;SDS011;1776;53.330;11.498;2023-04-25T08:59:13;19.23;;;3.77;;
3523;SDS011;1776;53.330;11.498;2023-04-25T09:01:38;13.00;;;4.33;;
3523;SDS011;1776;53.330;11.498;2023-04-25T09:04:04;7.30;;;2.63;;
3523;SDS011;1776;53.330;11.498;2023-04-25T09:06:31;7.10;;;2.93;;
3523;SDS011;1776;53.330;11.498;2023-04-25T09:09:04;15.17;;;3.83;;
3523;SDS011;1776;53.330;11.498;2023-04-25T09:11:30;7.87;;;3.10;;
3523;SDS011;1776;53.330;11.498;2023-04-25T09:21:55;8.83;;;2.23;;
3523;SDS011;1776;53.330;11.498;2023-04-25T09:24:38;5.80;;;2.67;;
3523;SDS011;1776;53.330;11.498;2023-04-25T09:27:07;11.03;;;2.97;;
3523;SDS011;1776;53.330;11.498;2023-04-25T09:29:34;13.07;;;2.73;;
3523;SDS011;1776;53.330;11.498;2023-04-25T09:32:21;10.70;;;2.13;;
3523;SDS011;1776;53.330;11.498;2023-04-25T09:34:54;7.30;;;2.33;;
3523;SDS011;1776;53.330;11.498;2023-04-25T09:37:22;4.40;;;1.83;;
3523;SDS011;1776;53.330;11.498;2023-04-25T09:39:57;14.87;;;3.13;;
3523;SDS011;1776;53.330;11.498;2023-04-25T09:42:30;8.90;;;2.37;;
3523;SDS011;1776;53.330;11.498;2023-04-25T09:44:57;6.83;;;2.00;;
3523;SDS011;1776;53.330;11.498;2023-04-25T09:47:24;5.60;;;2.63;;
3523;SDS011;1776;53.330;11.498;2023-04-25T09:49:50;5.70;;;1.83;;
3523;SDS011;1776;53.330;11.498;2023-04-25T09:52:20;11.70;;;2.73;;
3523;SDS011;1776;53.330;11.498;2023-04-25T09:54:47;9.70;;;1.60;;
3523;SDS011;1776;53.330;11.498;2023-04-25T09:57:15;6.97;;;3.00;;
3523;SDS011;1776;53.330;11.498;2023-04-25T10:02:10;6.83;;;2.00;;
3523;SDS011;1776;53.330;11.498;2023-04-25T10:04:36;5.50;;;2.80;;
3523;SDS011;1776;53.330;11.498;2023-04-25T10:07:03;2.87;;;1.67;;
3523;SDS011;1776;53.330;11.498;2023-04-25T10:09:31;11.40;;;2.47;;
3523;SDS011;1776;53.330;11.498;2023-04-25T10:12:00;7.87;;;2.03;;
3523;SDS011;1776;53.330;11.498;2023-04-25T10:14:28;9.23;;;2.30;;
3523;SDS011;1776;53.330;11.498;2023-04-25T10:16:55;9.30;;;2.50;;
3523;SDS011;1776;53.330;11.498;2023-04-25T10:19:22;9.57;;;2.83;;
3523;SDS011;1776;53.330;11.498;2023-04-25T10:22:10;7.80;;;2.70;;
3523;SDS011;1776;53.330;11.498;2023-04-25T10:24:35;4.90;;;2.37;;
3523;SDS011;1776;53.330;11.498;2023-04-25T10:27:02;5.80;;;2.23;;
3523;SDS011;1776;53.330;11.498;2023-04-25T10:29:27;9.20;;;1.90;;
3523;SDS011;1776;53.330;11.498;2023-04-25T10:31:53;6.50;;;2.70;;
3523;SDS011;1776;53.330;11.498;2023-04-25T10:34:19;4.93;;;2.30;;
3523;SDS011;1776;53.330;11.498;2023-04-25T10:36:52;8.00;;;2.03;;
3523;SDS011;1776;53.330;11.498;2023-04-25T10:39:22;7.67;;;1.93;;
3523;SDS011;1776;53.330;11.498;2023-04-25T10:41:53;7.90;;;2.53;;
3523;SDS011;1776;53.330;11.498;2023-04-25T10:44:21;5.10;;;2.07;;
3523;SDS011;1776;53.330;11.498;2023-04-25T10:46:46;3.43;;;1.90;;
3523;SDS011;1776;53.330;11.498;2023-04-25T10:49:15;8.27;;;1.90;;
3523;SDS011;1776;53.330;11.498;2023-04-25T10:52:10;4.30;;;1.80;;
3523;SDS011;1776;53.330;11.498;2023-04-25T10:54:46;9.10;;;2.20;;
3523;SDS011;1776;53.330;11.498;2023-04-25T11:00:10;10.37;;;1.60;;
3523;SDS011;1776;53.330;11.498;2023-04-25T11:02:38;12.10;;;2.90;;
3523;SDS011;1776;53.330;11.498;2023-04-25T11:05:08;7.33;;;2.10;;
3523;SDS011;1776;53.330;11.498;2023-04-25T11:07:38;10.97;;;3.20;;
3523;SDS011;1776;53.330;11.498;2023-04-25T11:10:25;5.67;;;2.10;;
3523;SDS011;1776;53.330;11.498;2023-04-25T11:12:52;10.17;;;1.87;;
3523;SDS011;1776;53.330;11.498;2023-04-25T11:15:17;19.33;;;3.07;;
3523;SDS011;1776;53.330;11.498;2023-04-25T11:17:42;5.67;;;1.77;;
3523;SDS011;1776;53.330;11.498;2023-04-25T11:20:09;11.83;;;2.17;;
3523;SDS011;1776;53.330;11.498;2023-04-25T11:22:37;6.87;;;2.10;;
3523;SDS011;1776;53.330;11.498;2023-04-25T11:25:06;7.80;;;2.87;;
3523;SDS011;1776;53.330;11.498;2023-04-25T11:30:16;6.30;;;3.27;;
3523;SDS011;1776;53.330;11.498;2023-04-25T11:32:42;6.43;;;2.23;;
3523;SDS011;1776;53.330;11.498;2023-04-25T11:35:08;12.77;;;1.73;;
3523;SDS011;1776;53.330;11.498;2023-04-25T11:37:34;2.60;;;1.63;;
3523;SDS011;1776;53.330;11.498;2023-04-25T11:40:00;11.43;;;2.20;;
3523;SDS011;1776;53.330;11.498;2023-04-25T11:42:25;6.60;;;1.93;;
3523;SDS011;1776;53.330;11.498;2023-04-25T11:44:51;2.93;;;1.67;;
3523;SDS011;1776;53.330;11.498;2023-04-25T11:47:17;5.53;;;2.23;;
3523;SDS011;1776;53.330;11.498;2023-04-25T11:49:42;6.13;;;2.20;;
3523;SDS011;1776;53.330;11.498;2023-04-25T11:52:07;5.80;;;1.97;;
3523;SDS011;1776;53.330;11.498;2023-04-25T11:54:36;8.57;;;1.90;;
3523;SDS011;1776;53.330;11.498;2023-04-25T11:57:02;5.87;;;1.57;;
3523;SDS011;1776;53.330;11.498;2023-04-25T11:59:28;9.53;;;1.97;;
3523;SDS011;1776;53.330;11.498;2023-04-25T12:01:53;3.60;;;1.73;;
3523;SDS011;1776;53.330;11.498;2023-04-25T12:04:20;2.90;;;1.63;;
3523;SDS011;1776;53.330;11.498;2023-04-25T12:06:47;4.10;;;1.63;;
3523;SDS011;1776;53.330;11.498;2023-04-25T12:09:15;4.73;;;1.90;;
3523;SDS011;1776;53.330;11.498;2023-04-25T12:11:52;4.00;;;1.50;;
3523;SDS011;1776;53.330;11.498;2023-04-25T12:16:51;4.70;;;1.33;;
3523;SDS011;1776;53.330;11.498;2023-04-25T12:19:18;4.10;;;1.33;;
3523;SDS011;1776;53.330;11.498;2023-04-25T12:21:44;8.30;;;1.40;;
3523;SDS011;1776;53.330;11.498;2023-04-25T12:24:10;7.70;;;1.47;;
3523;SDS011;1776;53.330;11.498;2023-04-25T12:29:17;5.30;;;1.57;;
3523;SDS011;1776;53.330;11.498;2023-04-25T12:31:50;6.20;;;1.50;;
3523;SDS011;1776;53.330;11.498;2023-04-25T12:34:17;4.57;;;1.33;;
3523;SDS011;1776;53.330;11.498;2023-04-25T12:36:42;4.07;;;1.50;;
3523;SDS011;1776;53.330;11.498;2023-04-25T12:39:08;5.10;;;1.10;;
3523;SDS011;1776;53.330;11.498;2023-04-25T12:41:33;6.47;;;1.20;;
3523;SDS011;1776;53.330;11.498;2023-04-25T12:43:59;5.53;;;1.47;;
3523;SDS011;1776;53.330;11.498;2023-04-25T12:46:24;7.53;;;1.47;;
3523;SDS011;1776;53.330;11.498;2023-04-25T12:48:50;4.17;;;1.63;;
3523;SDS011;1776;53.330;11.498;2023-04-25T12:51:15;3.30;;;1.53;;
3523;SDS011;1776;53.330;11.498;2023-04-25T12:53:40;5.27;;;1.27;;
3523;SDS011;1776;53.330;11.498;2023-04-25T12:56:06;2.03;;;1.10;;
3523;SDS011;1776;53.330;11.498;2023-04-25T12:58:32;3.50;;;1.43;;
3523;SDS011;1776;53.330;11.498;2023-04-25T13:00:58;10.40;;;1.40;;
3523;SDS011;1776;53.330;11.498;2023-04-25T13:03:23;6.13;;;1.33;;
3523;SDS011;1776;53.330;11.498;2023-04-25T13:05:49;3.17;;;1.13;;
3523;SDS011;1776;53.330;11.498;2023-04-25T13:08:17;3.20;;;1.40;;
3523;SDS011;1776;53.330;11.498;2023-04-25T13:10:42;7.37;;;1.63;;
3523;SDS011;1776;53.330;11.498;2023-04-25T13:13:07;2.10;;;1.63;;
3523;SDS011;1776;53.330;11.498;2023-04-25T13:15:33;3.33;;;1.50;;
3523;SDS011;1776;53.330;11.498;2023-04-25T13:17:58;7.17;;;1.30;;
3523;SDS011;1776;53.330;11.498;2023-04-25T13:20:24;4.73;;;1.33;;
3523;SDS011;1776;53.330;11.498;2023-04-25T13:22:49;2.37;;;1.90;;
3523;SDS011;1776;53.330;11.498;2023-04-25T13:25:15;7.87;;;1.90;;
3523;SDS011;1776;53.330;11.498;2023-04-25T13:27:41;6.73;;;1.50;;
3523;SDS011;1776;53.330;11.498;2023-04-25T13:30:09;2.70;;;1.50;;
3523;SDS011;1776;53.330;11.498;2023-04-25T13:32:34;6.20;;;1.53;;
3523;SDS011;1776;53.330;11.498;2023-04-25T13:35:01;4.67;;;1.97;;
3523;SDS011;1776;53.330;11.498;2023-04-25T13:37:27;10.97;;;1.70;;
3523;SDS011;1776;53.330;11.498;2023-04-25T13:39:52;4.10;;;1.60;;
3523;SDS011;1776;53.330;11.498;2023-04-25T13:42:20;7.80;;;2.73;;
3523;SDS011;1776;53.330;11.498;2023-04-25T13:44:46;5.37;;;1.27;;
3523;SDS011;1776;53.330;11.498;2023-04-25T13:47:11;2.40;;;1.20;;
3523;SDS011;1776;53.330;11.498;2023-04-25T13:49:36;4.93;;;1.77;;
3523;SDS011;1776;53.330;11.498;2023-04-25T13:52:01;11.30;;;1.43;;
3523;SDS011;1776;53.330;11.498;2023-04-25T13:54:27;1.70;;;1.10;;
3523;SDS011;1776;53.330;11.498;2023-04-25T13:56:52;2.77;;;1.57;;
3523;SDS011;1776;53.330;11.498;2023-04-25T13:59:20;7.70;;;1.37;;
3523;SDS011;1776;53.330;11.498;2023-04-25T14:01:45;3.17;;;1.13;;
3523;SDS011;1776;53.330;11.498;2023-04-25T14:04:11;3.37;;;1.30;;
3523;SDS011;1776;53.330;11.498;2023-04-25T14:06:36;3.10;;;1.13;;
3523;SDS011;1776;53.330;11.498;2023-04-25T14:09:01;3.00;;;1.30;;
3523;SDS011;1776;53.330;11.498;2023-04-25T14:11:29;5.30;;;1.20;;
3523;SDS011;1776;53.330;11.498;2023-04-25T14:13:54;7.00;;;1.50;;
3523;SDS011;1776;53.330;11.498;2023-04-25T14:16:19;5.37;;;1.40;;
3523;SDS011;1776;53.330;11.498;2023-04-25T14:18:45;7.20;;;1.43;;
3523;SDS011;1776;53.330;11.498;2023-04-25T14:21:10;7.70;;;1.60;;
3523;SDS011;1776;53.330;11.498;2023-04-25T14:23:35;4.07;;;1.17;;
3523;SDS011;1776;53.330;11.498;2023-04-25T14:26:01;6.07;;;1.87;;
3523;SDS011;1776;53.330;11.498;2023-04-25T14:28:26;5.70;;;1.60;;
3523;SDS011;1776;53.330;11.498;2023-04-25T14:30:52;3.63;;;1.40;;
3523;SDS011;1776;53.330;11.498;2023-04-25T14:33:17;4.93;;;1.83;;
3523;SDS011;1776;53.330;11.498;2023-04-25T14:35:42;7.27;;;1.40;;
3523;SDS011;1776;53.330;11.498;2023-04-25T14:38:08;4.80;;;1.23;;
3523;SDS011;1776;53.330;11.498;2023-04-25T14:40:33;3.50;;;1.07;;
3523;SDS011;1776;53.330;11.498;2023-04-25T14:42:58;1.53;;;0.80;;
3523;SDS011;1776;53.330;11.498;2023-04-25T14:45:24;2.50;;;1.53;;
3523;SDS011;1776;53.330;11.498;2023-04-25T14:47:49;6.77;;;1.60;;
3523;SDS011;1776;53.330;11.498;2023-04-25T14:50:15;6.43;;;1.47;;
3523;SDS011;1776;53.330;11.498;2023-04-25T14:52:40;4.70;;;1.40;;
3523;SDS011;1776;53.330;11.498;2023-04-25T14:55:05;2.90;;;1.40;;
3523;SDS011;1776;53.330;11.498;2023-04-25T14:57:32;3.90;;;1.13;;
3523;SDS011;1776;53.330;11.498;2023-04-25T14:59:58;6.27;;;2.03;;
3523;SDS011;1776;53.330;11.498;2023-04-25T15:02:24;5.73;;;1.33;;
3523;SDS011;1776;53.330;11.498;2023-04-25T15:04:49;3.37;;;1.23;;
3523;SDS011;1776;53.330;11.498;2023-04-25T15:07:14;4.17;;;1.63;;
3523;SDS011;1776;53.330;11.498;2023-04-25T15:09:40;3.70;;;1.70;;
3523;SDS011;1776;53.330;11.498;2023-04-25T15:12:05;6.20;;;1.97;;